Language: 


Des rapports , des résumés tant et plus, au choix de chacun....


Données statistiques de la station
Quotidien Rapport Février 22, 2017 Unités:  Anglais    Métrique   les deux
« Précédent Jour
Suivant Jour »
Quotidien Hebdomadaire Mensuel Annuel Actuel
  Haut: Bas: Moyen:
Température: 52.5 °F 49.8 °F 51.1 °F
Pt de rosée: 51.1 °F 48.4 °F 49.6 °F
Humidité: 96 % 92 % 95 %
Vitesse du vent: 30.9 mph 11.4 mph 19.1 mph
Rafales: 34.7 mph - -
Vent:- - WSW
Pression: 29.9 in 29.7 in -
Précipitation: 0 in    
Historical Graphs
 
 
Données statistiques pour Février 22, 2017
Heure Température Point de rosée Pression Vent Vitesse du vent Refales Humidité Pluie (taux horaire)
00:04 50.4 °F 48.9 °F 29.9 in WSW 20.8 mph 27.1 mph 95 % 0 in
00:09 50.4 °F 48.9 °F 29.9 in WSW 17.4 mph 25.1 mph 95 % 0 in
00:14 50.2 °F 48.7 °F 29.9 in WNW 14.8 mph 25.1 mph 95 % 0 in
00:19 50.2 °F 48.7 °F 29.9 in WSW 22.1 mph 22.1 mph 95 % 0 in
00:24 50.2 °F 48.7 °F 29.9 in West 13.4 mph 22.1 mph 95 % 0 in
00:29 50.2 °F 48.7 °F 29.9 in WSW 20.4 mph 20.4 mph 95 % 0 in
00:34 50.2 °F 48.7 °F 29.9 in WSW 18.1 mph 20.6 mph 95 % 0 in
00:39 50.2 °F 48.7 °F 29.9 in West 19.7 mph 27.1 mph 95 % 0 in
00:44 50 °F 48.6 °F 29.9 in WSW 17.9 mph 27.1 mph 95 % 0 in
00:49 50 °F 48.6 °F 29.9 in WSW 19.9 mph 21 mph 95 % 0 in
00:54 50 °F 48.6 °F 29.9 in West 19.7 mph 22.6 mph 95 % 0 in
00:59 50 °F 48.6 °F 29.9 in WSW 20.1 mph 23.5 mph 95 % 0 in
01:04 50 °F 48.6 °F 29.9 in WSW 17.9 mph 23.5 mph 95 % 0 in
01:09 50 °F 48.6 °F 29.9 in WSW 15.2 mph 21.3 mph 95 % 0 in
01:14 49.8 °F 48.4 °F 29.9 in WSW 19.9 mph 22.1 mph 95 % 0 in
01:19 49.8 °F 48.4 °F 29.9 in WSW 17.7 mph 22.1 mph 95 % 0 in
01:24 49.8 °F 48.4 °F 29.9 in WSW 17.2 mph 19.2 mph 95 % 0 in
01:29 49.8 °F 48.4 °F 29.9 in WSW 20.1 mph 20.1 mph 95 % 0 in
01:34 49.8 °F 48.4 °F 29.9 in WSW 13 mph 20.1 mph 95 % 0 in
01:39 49.8 °F 48.4 °F 29.9 in West 13.2 mph 20.1 mph 95 % 0 in
01:44 49.8 °F 48.4 °F 29.9 in WSW 17 mph 17 mph 95 % 0 in
01:49 49.8 °F 48.4 °F 29.9 in WSW 13.9 mph 17.4 mph 95 % 0 in
01:54 49.8 °F 48.4 °F 29.9 in WSW 19.7 mph 19.9 mph 95 % 0 in
01:59 49.8 °F 48.4 °F 29.9 in WSW 14.1 mph 22.6 mph 95 % 0 in
02:04 49.8 °F 48.4 °F 29.9 in WSW 18.6 mph 22.6 mph 95 % 0 in
02:09 50 °F 48.6 °F 29.9 in West 19.2 mph 23.3 mph 95 % 0 in
02:14 50 °F 48.6 °F 29.9 in WSW 17.7 mph 23.3 mph 95 % 0 in
02:19 50 °F 48.6 °F 29.9 in WSW 15.4 mph 22.8 mph 95 % 0 in
02:24 50 °F 48.6 °F 29.9 in WSW 19.2 mph 19.2 mph 95 % 0 in
02:28 50.2 °F 48.7 °F 29.9 in WSW 20.6 mph 20.6 mph 95 % 0 in
02:34 50.2 °F 48.7 °F 29.9 in WSW 12.8 mph 20.6 mph 95 % 0 in
02:38 50.2 °F 48.7 °F 29.9 in WSW 12.8 mph 20.6 mph 95 % 0 in
02:44 50.2 °F 48.7 °F 29.9 in WSW 14.8 mph 24.2 mph 95 % 0 in
02:49 50.2 °F 48.7 °F 29.9 in WSW 13.9 mph 24.2 mph 95 % 0 in
02:54 50.2 °F 48.7 °F 29.9 in West 16.1 mph 21.9 mph 95 % 0 in
02:58 50.2 °F 48.7 °F 29.9 in WSW 17 mph 21.9 mph 95 % 0 in
03:04 50.2 °F 48.7 °F 29.9 in WSW 17.9 mph 17.9 mph 95 % 0 in
03:09 50.2 °F 48.7 °F 29.8 in WSW 13.6 mph 19.9 mph 95 % 0 in
03:14 50.4 °F 48.9 °F 29.8 in West 19 mph 19.9 mph 95 % 0 in
03:19 50.4 °F 48.9 °F 29.8 in WSW 18.6 mph 23.7 mph 95 % 0 in
03:24 50.5 °F 49.1 °F 29.9 in WSW 19.5 mph 23.7 mph 95 % 0 in
03:29 50.5 °F 49.1 °F 29.9 in WSW 13.2 mph 24.2 mph 95 % 0 in
03:34 50.7 °F 49.3 °F 29.9 in WSW 16.1 mph 24.2 mph 95 % 0 in
03:39 50.7 °F 49.3 °F 29.8 in WSW 19.7 mph 20.6 mph 95 % 0 in
03:44 50.7 °F 49.3 °F 29.8 in WSW 17.4 mph 23.5 mph 95 % 0 in
03:49 50.9 °F 49.5 °F 29.8 in West 17.7 mph 24.2 mph 95 % 0 in
03:54 50.9 °F 49.5 °F 29.9 in WSW 18.8 mph 24.2 mph 95 % 0 in
03:59 50.9 °F 49.5 °F 29.9 in WSW 17.9 mph 25.1 mph 95 % 0 in
04:04 51.1 °F 49.5 °F 29.9 in West 22.8 mph 28 mph 94 % 0 in
04:09 51.1 °F 49.5 °F 29.9 in WSW 15.7 mph 28 mph 94 % 0 in
04:14 51.1 °F 49.5 °F 29.9 in WSW 19.5 mph 27.7 mph 94 % 0 in
04:19 51.1 °F 49.5 °F 29.9 in WSW 26.2 mph 26.2 mph 94 % 0 in
04:24 51.1 °F 49.5 °F 29.9 in WSW 13.9 mph 26.2 mph 94 % 0 in
04:29 51.1 °F 49.5 °F 29.9 in WSW 26.4 mph 26.4 mph 94 % 0 in
04:34 51.1 °F 49.5 °F 29.9 in WSW 15.2 mph 26.4 mph 94 % 0 in
04:39 51.1 °F 49.5 °F 29.9 in WSW 17.2 mph 25.3 mph 94 % 0 in
04:44 51.1 °F 49.1 °F 29.9 in WSW 20.4 mph 29.3 mph 93 % 0 in
04:49 51.1 °F 49.1 °F 29.9 in WSW 22.4 mph 29.3 mph 93 % 0 in
04:54 51.1 °F 49.1 °F 29.8 in WSW 19.7 mph 25.5 mph 93 % 0 in
04:59 50.9 °F 48.9 °F 29.8 in WSW 21.9 mph 25.5 mph 93 % 0 in
05:04 50.9 °F 48.9 °F 29.8 in WSW 19.2 mph 25.9 mph 93 % 0 in
05:09 50.9 °F 48.9 °F 29.8 in WSW 15.7 mph 25.9 mph 93 % 0 in
05:14 50.9 °F 48.9 °F 29.8 in WSW 23 mph 24.4 mph 93 % 0 in
05:19 50.9 °F 48.9 °F 29.8 in West 15.7 mph 24.4 mph 93 % 0 in
05:24 50.9 °F 48.9 °F 29.8 in WSW 19 mph 24.4 mph 93 % 0 in
05:29 50.9 °F 48.9 °F 29.8 in West 20.8 mph 26.4 mph 93 % 0 in
05:34 50.9 °F 48.9 °F 29.8 in WSW 17.9 mph 26.4 mph 93 % 0 in
05:39 50.9 °F 48.9 °F 29.8 in West 22.4 mph 25.1 mph 93 % 0 in
05:44 50.9 °F 48.9 °F 29.8 in WSW 15.2 mph 24.2 mph 93 % 0 in
05:49 50.9 °F 48.9 °F 29.8 in WSW 14.5 mph 25.9 mph 93 % 0 in
05:54 50.9 °F 48.9 °F 29.8 in WSW 19 mph 25.9 mph 93 % 0 in
05:59 50.7 °F 48.9 °F 29.8 in WSW 22.4 mph 23.7 mph 94 % 0 in
06:04 50.7 °F 48.9 °F 29.8 in WSW 15.4 mph 25.7 mph 94 % 0 in
06:09 50.7 °F 48.9 °F 29.8 in WSW 22.4 mph 25.7 mph 94 % 0 in
06:14 50.7 °F 48.9 °F 29.8 in WSW 14.3 mph 25.1 mph 94 % 0 in
06:19 50.7 °F 48.9 °F 29.8 in West 23.7 mph 23.7 mph 94 % 0 in
06:24 50.7 °F 48.9 °F 29.8 in WSW 19 mph 23.7 mph 94 % 0 in
06:29 50.9 °F 49.3 °F 29.8 in WSW 15.2 mph 23.9 mph 94 % 0 in
06:34 50.7 °F 48.9 °F 29.8 in West 19 mph 23.9 mph 94 % 0 in
06:39 50.7 °F 48.9 °F 29.8 in WSW 14.3 mph 25.5 mph 94 % 0 in
06:44 50.7 °F 48.9 °F 29.8 in WSW 12.5 mph 25.7 mph 94 % 0 in
06:49 50.7 °F 48.9 °F 29.8 in WSW 19.7 mph 25.7 mph 94 % 0 in
06:54 50.7 °F 48.9 °F 29.8 in West 20.1 mph 24.2 mph 94 % 0 in
06:59 50.7 °F 48.9 °F 29.8 in WSW 19.2 mph 22.8 mph 94 % 0 in
07:04 50.7 °F 48.9 °F 29.8 in WSW 16.8 mph 20.1 mph 94 % 0 in
07:09 50.7 °F 48.9 °F 29.8 in West 15.2 mph 25.5 mph 94 % 0 in
07:14 50.9 °F 48.9 °F 29.8 in WSW 15.2 mph 25.5 mph 93 % 0 in
07:19 50.9 °F 48.9 °F 29.8 in West 19.9 mph 25.3 mph 93 % 0 in
07:24 50.9 °F 48.9 °F 29.8 in WSW 19.9 mph 19.9 mph 93 % 0 in
07:29 50.9 °F 48.9 °F 29.8 in WSW 14.8 mph 24.2 mph 93 % 0 in
07:34 50.9 °F 48.9 °F 29.8 in West 13 mph 24.2 mph 93 % 0 in
07:39 50.9 °F 48.9 °F 29.8 in WSW 16.6 mph 23.7 mph 93 % 0 in
07:44 50.9 °F 48.9 °F 29.8 in West 22.8 mph 23.7 mph 93 % 0 in
07:49 50.9 °F 48.6 °F 29.8 in WSW 13 mph 25.5 mph 92 % 0 in
07:54 51.1 °F 48.7 °F 29.8 in West 25.1 mph 25.9 mph 92 % 0 in
07:59 51.1 °F 48.7 °F 29.8 in WSW 23.7 mph 28.9 mph 92 % 0 in
08:04 51.1 °F 48.7 °F 29.8 in WSW 19.2 mph 28.9 mph 92 % 0 in
08:09 51.1 °F 48.7 °F 29.8 in WSW 22.4 mph 25.3 mph 92 % 0 in
08:14 51.1 °F 48.7 °F 29.8 in WSW 12.8 mph 25.3 mph 92 % 0 in
08:19 51.1 °F 48.7 °F 29.8 in WNW 21.9 mph 24.2 mph 92 % 0 in
08:24 51.1 °F 48.7 °F 29.9 in WSW 18.8 mph 23.7 mph 92 % 0 in
08:29 51.3 °F 48.9 °F 29.9 in WSW 17.4 mph 27.7 mph 92 % 0 in
08:34 51.3 °F 48.9 °F 29.9 in WSW 16.1 mph 27.7 mph 92 % 0 in
08:35 51.3 °F 48.9 °F 29.9 in WSW 17.9 mph 27.7 mph 92 % 0 in
08:40 51.3 °F 48.9 °F 29.8 in WSW 21.9 mph 30.4 mph 92 % 0 in
08:45 51.3 °F 48.9 °F 29.8 in West 23.7 mph 30.4 mph 92 % 0 in
08:50 51.3 °F 49.3 °F 29.8 in WSW 19.9 mph 28.4 mph 93 % 0 in
08:55 51.3 °F 49.3 °F 29.9 in WSW 19.9 mph 28.4 mph 93 % 0 in
09:00 51.4 °F 49.3 °F 29.9 in West 19.9 mph 28.6 mph 92 % 0 in
09:05 51.4 °F 49.5 °F 29.9 in West 23.5 mph 28.6 mph 93 % 0 in
09:10 51.4 °F 49.5 °F 29.9 in WSW 14.5 mph 26.8 mph 93 % 0 in
09:15 51.3 °F 49.6 °F 29.9 in WSW 16.3 mph 26.8 mph 94 % 0 in
09:20 51.3 °F 49.6 °F 29.9 in West 25.1 mph 25.1 mph 94 % 0 in
09:25 51.3 °F 49.6 °F 29.9 in West 22.4 mph 25.1 mph 94 % 0 in
09:30 51.3 °F 49.6 °F 29.9 in WSW 14.1 mph 31.3 mph 94 % 0 in
09:35 51.3 °F 49.6 °F 29.9 in WSW 18.8 mph 31.3 mph 94 % 0 in
09:40 51.3 °F 49.8 °F 29.8 in WSW 24.2 mph 26.4 mph 95 % 0 in
09:45 51.3 °F 49.8 °F 29.8 in WSW 17.4 mph 27.1 mph 95 % 0 in
09:50 51.3 °F 49.8 °F 29.8 in West 26.2 mph 27.1 mph 95 % 0 in
09:55 51.3 °F 49.8 °F 29.8 in WSW 21.3 mph 27.1 mph 95 % 0 in
10:00 51.3 °F 49.8 °F 29.8 in WSW 15.4 mph 30 mph 95 % 0 in
10:05 51.3 °F 49.8 °F 29.8 in WSW 23.9 mph 30 mph 95 % 0 in
10:10 51.3 °F 49.8 °F 29.9 in West 22.8 mph 28.4 mph 95 % 0 in
10:15 51.4 °F 49.6 °F 29.9 in West 17.9 mph 26.8 mph 94 % 0 in
10:20 51.4 °F 49.6 °F 29.9 in West 12.1 mph 26.8 mph 94 % 0 in
10:25 51.4 °F 49.6 °F 29.9 in West 16.3 mph 26.8 mph 94 % 0 in
10:30 51.6 °F 49.8 °F 29.9 in WSW 14.8 mph 26.8 mph 94 % 0 in
10:35 51.6 °F 49.8 °F 29.9 in WSW 19 mph 28 mph 94 % 0 in
10:40 51.6 °F 49.8 °F 29.9 in West 15.4 mph 28 mph 94 % 0 in
10:45 51.6 °F 49.8 °F 29.9 in WSW 25.9 mph 26.4 mph 94 % 0 in
10:50 51.6 °F 49.8 °F 29.9 in WSW 14.5 mph 26.4 mph 94 % 0 in
10:55 51.6 °F 49.8 °F 29.9 in SSW 22.1 mph 25.9 mph 94 % 0 in
11:00 51.6 °F 50.2 °F 29.9 in West 15.7 mph 25.7 mph 95 % 0 in
11:05 51.4 °F 50 °F 29.9 in West 23.9 mph 30 mph 95 % 0 in
11:10 51.4 °F 50 °F 29.9 in WSW 17.9 mph 30 mph 95 % 0 in
11:15 51.6 °F 50.2 °F 29.9 in WSW 15.2 mph 28.6 mph 95 % 0 in
11:20 51.8 °F 50.4 °F 29.9 in WSW 16.6 mph 27.7 mph 95 % 0 in
11:25 52 °F 50.5 °F 29.9 in West 21.5 mph 26.2 mph 95 % 0 in
11:30 52.2 °F 50.7 °F 29.9 in SW 15.4 mph 30.6 mph 95 % 0 in
11:35 52.2 °F 50.4 °F 29.9 in WSW 20.8 mph 30.6 mph 94 % 0 in
11:40 52.2 °F 50.4 °F 29.9 in West 17.2 mph 24.4 mph 94 % 0 in
11:45 52.3 °F 50.5 °F 29.9 in West 23.9 mph 28.9 mph 94 % 0 in
11:50 52.3 °F 50.5 °F 29.9 in WSW 22.6 mph 28.9 mph 94 % 0 in
11:55 52.5 °F 50.7 °F 29.9 in WSW 17.4 mph 30 mph 94 % 0 in
12:00 52.5 °F 51.1 °F 29.9 in West 17.7 mph 30 mph 94 % 0 in
12:05 52.5 °F 50.7 °F 29.9 in West 21.9 mph 27.3 mph 93 % 0 in
12:10 52.5 °F 50.7 °F 29.9 in WSW 26.4 mph 29.1 mph 93 % 0 in
12:15 52.5 °F 50.2 °F 29.9 in West 28.9 mph 31.8 mph 92 % 0 in
12:20 52.5 °F 50.5 °F 29.9 in WSW 22.4 mph 31.8 mph 93 % 0 in
12:25 52.5 °F 50.5 °F 29.9 in WSW 25.3 mph 29.1 mph 93 % 0 in
12:30 52.5 °F 50.5 °F 29.9 in West 22.8 mph 28.4 mph 93 % 0 in
12:35 52.5 °F 50.5 °F 29.9 in WSW 19.5 mph 28.4 mph 93 % 0 in
12:40 52.5 °F 50.5 °F 29.8 in West 20.8 mph 28.4 mph 93 % 0 in
12:45 52.3 °F 50.4 °F 29.8 in WSW 23.7 mph 28.9 mph 93 % 0 in
12:50 52.3 °F 50.4 °F 29.8 in West 26.8 mph 28.9 mph 93 % 0 in
12:55 52.3 °F 50.5 °F 29.8 in West 15.9 mph 27.7 mph 94 % 0 in
13:00 52.3 °F 50.5 °F 29.8 in WSW 28 mph 29.5 mph 94 % 0 in
13:05 52.2 °F 50.4 °F 29.8 in West 29.8 mph 30.6 mph 94 % 0 in
13:10 52.2 °F 50.4 °F 29.8 in WSW 22.6 mph 30.6 mph 94 % 0 in
13:15 52.2 °F 50.4 °F 29.8 in West 17.7 mph 27.7 mph 94 % 0 in
13:20 52.2 °F 50.4 °F 29.8 in West 22.4 mph 28.6 mph 94 % 0 in
13:25 52.3 °F 50.9 °F 29.8 in WSW 23.9 mph 28.6 mph 95 % 0 in
13:30 52.3 °F 50.5 °F 29.8 in WSW 17.2 mph 27.1 mph 94 % 0 in
13:35 52.3 °F 50.5 °F 29.8 in WSW 29.5 mph 29.5 mph 94 % 0 in
13:40 52.3 °F 50.5 °F 29.8 in WSW 21.3 mph 29.5 mph 94 % 0 in
13:45 52.3 °F 50.5 °F 29.8 in West 19.7 mph 32.7 mph 94 % 0 in
13:50 52.3 °F 50.5 °F 29.8 in WSW 22.8 mph 32.7 mph 94 % 0 in
13:55 52.5 °F 50.5 °F 29.8 in WSW 22.4 mph 31.1 mph 93 % 0 in
14:00 52.5 °F 50.5 °F 29.8 in WSW 27.1 mph 31.1 mph 93 % 0 in
14:05 52.5 °F 50.5 °F 29.8 in West 19.7 mph 31.8 mph 93 % 0 in
14:10 52.3 °F 50.4 °F 29.8 in WSW 16.6 mph 31.8 mph 93 % 0 in
14:15 52.3 °F 50.4 °F 29.8 in WSW 14.3 mph 32.4 mph 93 % 0 in
14:20 52.3 °F 50.4 °F 29.8 in WSW 26.4 mph 32.4 mph 93 % 0 in
14:25 52.3 °F 50.4 °F 29.8 in WSW 20.8 mph 34.7 mph 93 % 0 in
14:26 52.3 °F 50.4 °F 29.8 in WSW 15.2 mph 34.7 mph 93 % 0 in
14:31 52.3 °F 50.4 °F 29.8 in WSW 22.8 mph 34.7 mph 93 % 0 in
14:36 52.5 °F 50.5 °F 29.8 in WSW 23.5 mph 31.8 mph 93 % 0 in
14:41 52.5 °F 50.5 °F 29.8 in West 22.8 mph 30.2 mph 93 % 0 in
14:46 52.5 °F 50.7 °F 29.8 in West 25.5 mph 30.2 mph 93 % 0 in
14:51 52.5 °F 50.7 °F 29.8 in WSW 24.2 mph 28 mph 93 % 0 in
14:56 52.5 °F 50.5 °F 29.8 in WSW 20.1 mph 26.6 mph 93 % 0 in
15:01 52.5 °F 50.5 °F 29.8 in West 26.2 mph 32.7 mph 93 % 0 in
15:06 52.3 °F 50.4 °F 29.8 in West 19.7 mph 32.7 mph 93 % 0 in
15:11 52.3 °F 50.4 °F 29.8 in WSW 27.3 mph 30 mph 93 % 0 in
15:16 52.3 °F 50.4 °F 29.8 in WSW 22.6 mph 28.6 mph 93 % 0 in
15:21 52.2 °F 50.2 °F 29.8 in WSW 25.3 mph 28.6 mph 93 % 0 in
15:22 52.2 °F 50.2 °F 29.8 in WSW 19.9 mph 28.6 mph 93 % 0 in
15:27 52.2 °F 50.2 °F 29.8 in WSW 13.4 mph 30 mph 93 % 0 in
15:32 52.2 °F 50.2 °F 29.8 in West 20.1 mph 30 mph 93 % 0 in
15:37 52.2 °F 50.2 °F 29.8 in WSW 27.1 mph 30.6 mph 93 % 0 in
15:42 52 °F 50 °F 29.8 in WSW 15.2 mph 30.6 mph 93 % 0 in
15:47 52 °F 50 °F 29.8 in WSW 19 mph 32.2 mph 93 % 0 in
15:52 52 °F 50 °F 29.8 in WSW 16.8 mph 32.2 mph 93 % 0 in
15:57 52 °F 50.4 °F 29.8 in WSW 15.9 mph 30.4 mph 94 % 0 in
16:02 51.8 °F 50.2 °F 29.8 in WSW 23 mph 26.2 mph 94 % 0 in
16:07 51.6 °F 49.8 °F 29.8 in WSW 15.2 mph 26.2 mph 94 % 0 in
16:12 51.6 °F 50.2 °F 29.8 in WSW 20.4 mph 25.9 mph 95 % 0 in
16:17 51.4 °F 50 °F 29.8 in WSW 21 mph 26.8 mph 95 % 0 in
16:22 51.3 °F 49.8 °F 29.8 in WSW 18.6 mph 26.8 mph 95 % 0 in
16:27 51.3 °F 49.8 °F 29.8 in West 12.8 mph 26.8 mph 95 % 0 in
16:32 51.3 °F 49.8 °F 29.8 in WSW 22.8 mph 27.7 mph 95 % 0 in
16:37 51.3 °F 49.8 °F 29.8 in WSW 17 mph 27.7 mph 95 % 0 in
16:42 51.3 °F 49.8 °F 29.8 in WSW 17.7 mph 25.3 mph 95 % 0 in
16:47 51.3 °F 49.8 °F 29.8 in West 20.4 mph 25.7 mph 95 % 0 in
16:52 51.3 °F 49.8 °F 29.8 in West 18.1 mph 25.7 mph 95 % 0 in
16:57 51.3 °F 49.8 °F 29.8 in West 18.6 mph 27.3 mph 95 % 0 in
17:02 51.3 °F 49.8 °F 29.8 in WSW 17.2 mph 27.3 mph 95 % 0 in
17:07 51.3 °F 49.8 °F 29.8 in West 25.5 mph 29.5 mph 95 % 0 in
17:12 51.3 °F 49.8 °F 29.8 in WSW 16.3 mph 29.5 mph 95 % 0 in
17:17 51.1 °F 50 °F 29.8 in WSW 17.2 mph 27.7 mph 96 % 0 in
17:22 51.1 °F 50 °F 29.8 in WSW 20.1 mph 28.4 mph 96 % 0 in
17:27 51.1 °F 50 °F 29.8 in WSW 14.8 mph 28.4 mph 96 % 0 in
17:32 50.9 °F 49.8 °F 29.8 in West 12.8 mph 25.7 mph 96 % 0 in
17:37 50.9 °F 49.8 °F 29.8 in WSW 15.4 mph 26.2 mph 96 % 0 in
17:42 50.9 °F 49.8 °F 29.8 in West 22.8 mph 26.2 mph 96 % 0 in
17:47 50.9 °F 49.8 °F 29.8 in WSW 17.2 mph 25.9 mph 96 % 0 in
17:52 50.7 °F 49.6 °F 29.8 in West 19.7 mph 25.9 mph 96 % 0 in
17:57 50.7 °F 49.6 °F 29.8 in WSW 21.9 mph 23.3 mph 96 % 0 in
18:02 50.7 °F 49.6 °F 29.8 in WSW 16.8 mph 25.3 mph 96 % 0 in
18:07 50.7 °F 49.6 °F 29.8 in WSW 22.1 mph 28.4 mph 96 % 0 in
18:12 50.7 °F 49.6 °F 29.8 in WSW 20.6 mph 28.4 mph 96 % 0 in
18:17 50.7 °F 49.6 °F 29.8 in WSW 17.7 mph 27.5 mph 96 % 0 in
18:22 50.7 °F 49.6 °F 29.8 in WSW 26.2 mph 26.2 mph 96 % 0 in
18:27 50.7 °F 49.6 °F 29.8 in West 30.9 mph 30.9 mph 96 % 0 in
18:32 50.7 °F 49.6 °F 29.8 in WSW 17.7 mph 31.1 mph 96 % 0 in
18:37 50.9 °F 49.8 °F 29.8 in West 22.4 mph 31.1 mph 96 % 0 in
18:42 50.9 °F 49.8 °F 29.8 in WSW 24.4 mph 26.4 mph 96 % 0 in
18:47 50.9 °F 49.8 °F 29.8 in WSW 25.3 mph 28.6 mph 96 % 0 in
18:52 50.9 °F 49.8 °F 29.8 in WSW 21 mph 28.6 mph 96 % 0 in
18:57 50.9 °F 49.8 °F 29.8 in West 20.8 mph 27.7 mph 96 % 0 in
19:02 50.9 °F 49.8 °F 29.8 in West 15.4 mph 27.7 mph 96 % 0 in
19:07 50.9 °F 49.8 °F 29.8 in WSW 22.8 mph 25.3 mph 96 % 0 in
19:12 50.9 °F 49.8 °F 29.8 in WSW 23.5 mph 28.4 mph 96 % 0 in
19:17 50.9 °F 49.8 °F 29.8 in WSW 19.9 mph 28.4 mph 96 % 0 in
19:22 50.9 °F 49.8 °F 29.8 in West 17.2 mph 25.5 mph 96 % 0 in
19:27 50.9 °F 49.8 °F 29.8 in West 17.2 mph 30.2 mph 96 % 0 in
19:32 50.9 °F 49.8 °F 29.8 in West 17.9 mph 30.2 mph 96 % 0 in
19:37 50.9 °F 49.8 °F 29.8 in WSW 25.3 mph 32.7 mph 96 % 0 in
19:42 50.7 °F 49.6 °F 29.8 in WSW 17.2 mph 32.7 mph 96 % 0 in
19:47 50.7 °F 49.6 °F 29.8 in WSW 12.3 mph 23.9 mph 96 % 0 in
19:52 50.7 °F 49.6 °F 29.8 in WSW 15.7 mph 24.6 mph 96 % 0 in
19:57 50.7 °F 49.6 °F 29.8 in WSW 19.7 mph 24.6 mph 96 % 0 in
20:02 50.7 °F 49.6 °F 29.8 in WSW 15.7 mph 23.5 mph 96 % 0 in
20:07 50.7 °F 49.6 °F 29.8 in West 21.9 mph 32.2 mph 96 % 0 in
20:12 50.7 °F 49.6 °F 29.8 in West 19.9 mph 32.2 mph 96 % 0 in
20:17 50.7 °F 49.6 °F 29.8 in WSW 19.9 mph 22.8 mph 96 % 0 in
20:22 50.9 °F 49.8 °F 29.8 in West 19.7 mph 25.3 mph 96 % 0 in
20:27 50.9 °F 49.8 °F 29.8 in WSW 17.4 mph 25.3 mph 96 % 0 in
20:32 50.9 °F 49.8 °F 29.8 in West 17 mph 23 mph 96 % 0 in
20:37 50.7 °F 49.6 °F 29.8 in WSW 19.7 mph 23.7 mph 96 % 0 in
20:42 50.7 °F 49.6 °F 29.8 in WSW 19.7 mph 24.6 mph 96 % 0 in
20:47 50.7 °F 49.6 °F 29.8 in West 17 mph 24.6 mph 96 % 0 in
20:52 50.7 °F 49.6 °F 29.8 in WSW 13.2 mph 26.2 mph 96 % 0 in
20:57 50.7 °F 49.6 °F 29.8 in WSW 17.4 mph 26.2 mph 96 % 0 in
21:02 50.7 °F 49.6 °F 29.8 in West 16.1 mph 25.5 mph 96 % 0 in
21:07 50.7 °F 49.6 °F 29.8 in WSW 21.9 mph 25.1 mph 96 % 0 in
21:12 50.7 °F 49.6 °F 29.8 in West 15.2 mph 25.1 mph 96 % 0 in
21:17 50.7 °F 49.6 °F 29.8 in WSW 23.7 mph 27.5 mph 96 % 0 in
21:22 50.7 °F 49.6 °F 29.8 in WSW 17 mph 28 mph 96 % 0 in
21:27 50.7 °F 49.6 °F 29.8 in WSW 19.5 mph 28 mph 96 % 0 in
21:32 50.7 °F 49.6 °F 29.8 in WSW 19.5 mph 25.5 mph 96 % 0 in
21:37 50.7 °F 49.6 °F 29.8 in WSW 19.7 mph 28.6 mph 96 % 0 in
21:42 50.7 °F 49.6 °F 29.8 in WSW 15.4 mph 28.6 mph 96 % 0 in
21:47 50.7 °F 49.6 °F 29.8 in WSW 19.7 mph 28.6 mph 96 % 0 in
21:52 50.7 °F 49.6 °F 29.8 in WSW 17 mph 28.6 mph 96 % 0 in
21:57 50.7 °F 49.6 °F 29.8 in WSW 22.4 mph 27.7 mph 96 % 0 in
22:02 50.7 °F 49.6 °F 29.8 in WSW 19.5 mph 27.7 mph 96 % 0 in
22:07 50.7 °F 49.6 °F 29.8 in West 15.4 mph 24.2 mph 96 % 0 in
22:12 50.7 °F 49.6 °F 29.8 in WSW 12.5 mph 23.7 mph 96 % 0 in
22:17 50.7 °F 49.6 °F 29.8 in WSW 15.2 mph 26.2 mph 96 % 0 in
22:22 50.7 °F 49.6 °F 29.8 in West 14.8 mph 27.5 mph 96 % 0 in
22:27 50.7 °F 49.6 °F 29.8 in WSW 13.2 mph 27.5 mph 96 % 0 in
22:32 50.7 °F 49.6 °F 29.8 in West 22.4 mph 26.8 mph 96 % 0 in
22:37 50.9 °F 49.8 °F 29.8 in WSW 19.9 mph 26.8 mph 96 % 0 in
22:42 50.9 °F 49.8 °F 29.8 in West 15.7 mph 27.1 mph 96 % 0 in
22:47 50.9 °F 49.8 °F 29.8 in West 15.4 mph 27.1 mph 96 % 0 in
22:52 50.9 °F 49.8 °F 29.8 in WSW 13.6 mph 23.9 mph 96 % 0 in
22:57 50.9 °F 49.8 °F 29.8 in WSW 20.6 mph 25.5 mph 96 % 0 in
23:02 50.9 °F 49.8 °F 29.8 in West 11.4 mph 25.5 mph 96 % 0 in
23:07 50.9 °F 49.8 °F 29.8 in WSW 26.6 mph 32.2 mph 96 % 0 in
23:12 50.7 °F 49.6 °F 29.8 in WSW 17.7 mph 32.2 mph 96 % 0 in
23:17 50.7 °F 49.6 °F 29.8 in WSW 17.7 mph 29.3 mph 96 % 0 in
23:22 50.7 °F 49.6 °F 29.8 in WSW 28 mph 28 mph 96 % 0 in
23:27 50.7 °F 49.6 °F 29.8 in WSW 23.3 mph 28 mph 96 % 0 in
23:32 50.7 °F 49.6 °F 29.8 in SW 16.3 mph 26.6 mph 96 % 0 in
23:37 50.5 °F 49.5 °F 29.8 in WSW 17.7 mph 23.9 mph 96 % 0 in
23:39 50.5 °F 49.5 °F 29.8 in West 13.2 mph 24.4 mph 96 % 0 in
23:44 50.5 °F 49.5 °F 29.8 in WSW 22.1 mph 24.4 mph 96 % 0 in
23:49 50.5 °F 49.5 °F 29.8 in WSW 23.3 mph 25.1 mph 96 % 0 in
23:54 50.5 °F 49.5 °F 29.7 in West 15.7 mph 26.2 mph 96 % 0 in
23:59 50.5 °F 49.5 °F 29.7 in WSW 15.4 mph 28 mph 96 % 0 in
Le Gheer Warneton
Courtoisie de Weather Underground - 2.25 mb

Mise a jour : 18/12/2017 04:07:12
Généré par Cumulus 1.9.4 (1099)